createdAt,value
2023-05-03T00:00:54.533Z,98655.13
2023-05-03T00:03:23.868Z,98647.97
2023-05-03T00:05:51.320Z,98648.66
2023-05-03T00:08:18.878Z,98647.00
2023-05-03T00:10:46.164Z,98643.06
2023-05-03T00:13:13.724Z,98646.75
2023-05-03T00:15:40.982Z,98638.50
2023-05-03T00:18:08.827Z,98637.78
2023-05-03T00:20:36.210Z,98636.09
2023-05-03T00:23:05.130Z,98639.47
2023-05-03T00:25:32.522Z,98631.59
2023-05-03T00:28:00.007Z,98641.50
2023-05-03T00:30:27.311Z,98638.88
2023-05-03T00:32:54.821Z,98642.09
2023-05-03T00:35:22.300Z,98633.72
2023-05-03T00:37:49.901Z,98636.84
2023-05-03T00:40:18.882Z,98638.63
2023-05-03T00:42:46.785Z,98632.03
2023-05-03T00:45:14.027Z,98633.47
2023-05-03T00:47:42.528Z,98636.00
2023-05-03T00:50:11.983Z,98634.56
2023-05-03T00:52:41.937Z,98631.66
2023-05-03T00:55:10.683Z,98633.22
2023-05-03T00:57:38.311Z,98632.03
2023-05-03T01:00:07.955Z,98623.09
2023-05-03T01:02:36.038Z,98630.63
2023-05-03T01:05:07.463Z,98631.59
2023-05-03T01:07:54.246Z,98641.47
2023-05-03T01:10:40.647Z,98635.75
2023-05-03T01:13:19.721Z,98639.81
2023-05-03T01:16:20.062Z,98643.16
2023-05-03T01:18:51.138Z,98649.88
2023-05-03T01:21:22.861Z,98645.31
2023-05-03T01:24:18.462Z,98641.84
2023-05-03T01:26:46.032Z,98643.41
2023-05-03T01:29:15.182Z,98645.31
2023-05-03T01:31:55.933Z,98644.09
2023-05-03T01:34:50.979Z,98642.31
2023-05-03T01:37:19.106Z,98649.38
2023-05-03T01:40:02.078Z,98647.81
2023-05-03T01:42:32.600Z,98652.94
2023-05-03T01:45:03.598Z,98648.19
2023-05-03T01:47:31.425Z,98650.91
2023-05-03T01:49:58.987Z,98641.03
2023-05-03T01:52:26.873Z,98651.28
2023-05-03T01:54:54.428Z,98661.09
2023-05-03T01:57:21.804Z,98654.16
2023-05-03T01:59:49.312Z,98653.22
2023-05-03T02:02:16.635Z,98657.63
2023-05-03T02:04:44.207Z,98655.34
2023-05-03T02:07:11.483Z,98657.25
2023-05-03T02:09:39.070Z,98655.59
2023-05-03T02:12:07.173Z,98652.00
2023-05-03T02:14:34.699Z,98653.44
2023-05-03T02:17:03.474Z,98651.41
2023-05-03T02:19:31.202Z,98654.63
2023-05-03T02:21:58.521Z,98653.72
2023-05-03T02:24:26.108Z,98653.47
2023-05-03T02:26:53.343Z,98655.84
2023-05-03T02:29:20.927Z,98657.50
2023-05-03T02:31:48.203Z,98659.81
2023-05-03T02:34:15.919Z,98657.06
2023-05-03T02:36:43.237Z,98657.50
2023-05-03T02:39:11.143Z,98656.69
2023-05-03T02:41:38.468Z,98659.81
2023-05-03T02:44:06.129Z,98653.78
2023-05-03T02:46:33.458Z,98659.88
2023-05-03T02:49:01.068Z,98663.34
2023-05-03T02:51:28.388Z,98659.81
2023-05-03T02:53:55.999Z,98666.84
2023-05-03T02:56:26.037Z,98664.09
2023-05-03T02:58:54.163Z,98666.94
2023-05-03T03:01:22.467Z,98667.31
2023-05-03T03:03:50.509Z,98664.94
2023-05-03T03:06:18.000Z,98668.38
2023-05-03T03:08:45.637Z,98667.44
2023-05-03T03:11:13.198Z,98666.09
2023-05-03T03:13:41.414Z,98668.72
2023-05-03T03:16:09.840Z,98667.38
2023-05-03T03:18:37.909Z,98669.91
2023-05-03T03:21:05.216Z,98678.84
2023-05-03T03:23:32.961Z,98676.59
2023-05-03T03:26:00.400Z,98676.72
2023-05-03T03:28:27.916Z,98678.59
2023-05-03T03:30:55.306Z,98669.88
2023-05-03T03:33:24.716Z,98668.19
2023-05-03T03:35:52.036Z,98669.78
2023-05-03T03:38:19.633Z,98676.22
2023-05-03T03:40:46.935Z,98670.00
2023-05-03T03:43:14.547Z,98679.09
2023-05-03T03:45:41.941Z,98680.44
2023-05-03T03:48:09.588Z,98678.28
2023-05-03T03:50:37.626Z,98685.22
2023-05-03T03:53:06.253Z,98690.47
2023-05-03T03:55:33.520Z,98688.59
2023-05-03T03:58:01.152Z,98685.00
2023-05-03T04:00:28.745Z,98685.00
2023-05-03T04:02:56.660Z,98692.88
2023-05-03T04:05:24.027Z,98689.88
2023-05-03T04:07:51.731Z,98695.00
2023-05-03T04:10:19.027Z,98699.47
2023-05-03T04:12:46.567Z,98695.38
2023-05-03T04:15:14.036Z,98696.56
2023-05-03T04:17:41.942Z,98701.69
2023-05-03T04:20:13.989Z,98703.38
2023-05-03T04:22:41.954Z,98701.84
2023-05-03T04:25:17.282Z,98707.47
2023-05-03T04:27:46.234Z,98713.44
2023-05-03T04:30:15.691Z,98717.38
2023-05-03T04:32:43.825Z,98718.84
2023-05-03T04:35:12.605Z,98715.53
2023-05-03T04:37:42.186Z,98720.28
2023-05-03T04:40:12.302Z,98726.72
2023-05-03T04:42:39.950Z,98734.88
2023-05-03T04:45:09.807Z,98734.44
2023-05-03T04:47:37.680Z,98739.44
2023-05-03T04:50:05.901Z,98733.03
2023-05-03T04:52:34.924Z,98739.50
2023-05-03T04:55:02.865Z,98738.56
2023-05-03T04:57:30.551Z,98737.34
2023-05-03T04:59:58.439Z,98742.88
2023-05-03T05:02:27.319Z,98746.22
2023-05-03T05:04:54.723Z,98754.38
2023-05-03T05:07:22.286Z,98754.50
2023-05-03T05:09:49.531Z,98760.25
2023-05-03T05:12:17.155Z,98759.41
2023-05-03T05:14:44.546Z,98766.34
2023-05-03T05:17:12.245Z,98766.09
2023-05-03T05:19:39.526Z,98766.34
2023-05-03T05:22:07.101Z,98774.34
2023-05-03T05:24:34.447Z,98771.72
2023-05-03T05:27:01.975Z,98782.59
2023-05-03T05:29:29.220Z,98782.00
2023-05-03T05:31:56.892Z,98786.03
2023-05-03T05:34:24.148Z,98791.06
2023-05-03T05:36:52.327Z,98790.75
2023-05-03T05:39:19.717Z,98794.31
2023-05-03T05:41:47.468Z,98794.91
2023-05-03T05:44:14.938Z,98799.22
2023-05-03T05:46:42.567Z,98802.94
2023-05-03T05:49:09.857Z,98799.72
2023-05-03T05:51:37.414Z,98798.19
2023-05-03T05:54:05.021Z,98799.59
2023-05-03T05:56:32.567Z,98806.75
2023-05-03T05:59:01.063Z,98814.66
2023-05-03T06:01:28.737Z,98810.31
2023-05-03T06:03:56.565Z,98810.31
2023-05-03T06:06:24.267Z,98815.25
2023-05-03T06:08:51.666Z,98818.94
2023-05-03T06:11:19.211Z,98818.22
2023-05-03T06:13:46.516Z,98822.41
2023-05-03T06:16:14.121Z,98824.97
2023-05-03T06:18:41.439Z,98824.16
2023-05-03T06:21:10.340Z,98829.41
2023-05-03T06:23:39.712Z,98833.50
2023-05-03T06:26:07.365Z,98826.47
2023-05-03T06:28:36.058Z,98830.22
2023-05-03T06:31:03.704Z,98830.59
2023-05-03T06:33:31.038Z,98834.53
2023-05-03T06:35:59.301Z,98832.78
2023-05-03T06:38:26.640Z,98833.28
2023-05-03T06:40:54.280Z,98838.09
2023-05-03T06:43:22.333Z,98839.66
2023-05-03T06:45:55.395Z,98842.91
2023-05-03T06:48:22.769Z,98843.25
2023-05-03T06:50:50.842Z,98845.81
2023-05-03T06:53:18.136Z,98849.16
2023-05-03T06:55:46.364Z,98852.31
2023-05-03T06:58:13.665Z,98856.19
2023-05-03T07:00:41.275Z,98856.06
2023-05-03T07:03:08.760Z,98854.19
2023-05-03T07:05:37.239Z,98864.34
2023-05-03T07:08:04.975Z,98856.19
2023-05-03T07:10:32.595Z,98862.09
2023-05-03T07:12:59.888Z,98859.19
2023-05-03T07:15:27.428Z,98864.72
2023-05-03T07:17:54.755Z,98866.25
2023-05-03T07:20:22.357Z,98859.78
2023-05-03T07:22:49.638Z,98870.44
2023-05-03T07:25:17.890Z,98866.19
2023-05-03T07:27:45.504Z,98871.38
2023-05-03T07:30:13.701Z,98872.94
2023-05-03T07:32:41.168Z,98876.31
2023-05-03T07:35:09.455Z,98881.34
2023-05-03T07:37:38.696Z,98869.00
2023-05-03T07:40:07.915Z,98879.06
2023-05-03T07:42:35.630Z,98879.19
2023-05-03T07:45:03.504Z,98876.66
2023-05-03T07:47:31.667Z,98879.66
2023-05-03T07:49:59.456Z,98871.75
2023-05-03T07:52:26.715Z,98883.72
2023-05-03T07:54:54.263Z,98876.88
2023-05-03T07:57:23.858Z,98882.34
2023-05-03T07:59:51.444Z,98879.44
2023-05-03T08:02:18.808Z,98878.97
2023-05-03T08:04:46.710Z,98882.44
2023-05-03T08:07:14.896Z,98884.63
2023-05-03T08:09:42.584Z,98879.50
2023-05-03T08:12:09.870Z,98879.63
2023-05-03T08:14:37.776Z,98881.22
2023-05-03T08:17:05.199Z,98883.13
2023-05-03T08:19:32.777Z,98885.44
2023-05-03T08:22:00.196Z,98893.28
2023-05-03T08:24:27.958Z,98881.06
2023-05-03T08:26:55.835Z,98878.34
2023-05-03T08:29:23.813Z,98879.38
2023-05-03T08:31:52.771Z,98886.75
2023-05-03T08:34:20.436Z,98886.28
2023-05-03T08:36:47.712Z,98882.44
2023-05-03T08:39:15.595Z,98894.22
2023-05-03T08:41:43.561Z,98885.25
2023-05-03T08:44:23.440Z,98903.31
2023-05-03T08:46:51.447Z,98903.31
2023-05-03T08:49:19.421Z,98904.47
2023-05-03T08:51:48.552Z,98907.47
2023-05-03T08:54:18.309Z,98910.00
2023-05-03T08:56:47.388Z,98913.88
2023-05-03T08:59:17.320Z,98909.75
2023-05-03T09:01:45.019Z,98919.50
2023-05-03T09:04:13.093Z,98914.75
2023-05-03T09:06:40.813Z,98925.69
2023-05-03T09:09:09.795Z,98915.59
2023-05-03T09:11:39.416Z,98918.22
2023-05-03T09:14:14.009Z,98929.47
2023-05-03T09:16:47.478Z,98930.75
2023-05-03T09:19:16.400Z,98930.53
2023-05-03T09:21:48.851Z,98928.25
2023-05-03T09:24:22.230Z,98926.19
2023-05-03T09:26:52.045Z,98930.25
2023-05-03T09:29:37.473Z,98927.97
2023-05-03T09:32:07.709Z,98931.03
2023-05-03T09:34:37.150Z,98934.84
2023-05-03T09:37:04.848Z,98929.09
2023-05-03T09:39:32.937Z,98933.19
2023-05-03T09:42:19.325Z,98936.81
2023-05-03T09:44:51.938Z,98936.19
2023-05-03T09:47:19.813Z,98932.06
2023-05-03T09:49:48.300Z,98941.53
2023-05-03T09:52:15.782Z,98937.50
2023-05-03T09:54:44.168Z,98932.84
2023-05-03T09:57:14.894Z,98934.94
2023-05-03T09:59:46.425Z,98931.09
2023-05-03T10:02:14.956Z,98929.00
2023-05-03T10:04:50.994Z,98934.88
2023-05-03T10:07:23.261Z,98931.00
2023-05-03T10:09:51.296Z,98937.31
2023-05-03T10:12:20.613Z,98933.75
2023-05-03T10:14:52.667Z,98933.03
2023-05-03T10:17:43.528Z,98933.50
2023-05-03T10:21:04.327Z,98928.50
2023-05-03T10:23:31.587Z,98932.56
2023-05-03T10:26:09.754Z,98926.97
2023-05-03T10:28:40.136Z,98929.56
2023-05-03T10:31:48.390Z,98926.22
2023-05-03T10:34:30.642Z,98929.91
2023-05-03T10:37:03.629Z,98932.41
2023-05-03T10:39:31.967Z,98936.72
2023-05-03T10:42:08.403Z,98935.50
2023-05-03T10:44:41.349Z,98927.34
2023-05-03T10:47:24.125Z,98927.00
2023-05-03T10:50:16.354Z,98929.84
2023-05-03T10:52:44.049Z,98921.03
2023-05-03T10:55:21.172Z,98928.31
2023-05-03T10:57:50.496Z,98929.84
2023-05-03T11:00:33.128Z,98931.28
2023-05-03T11:03:44.788Z,98928.56
2023-05-03T11:06:56.913Z,98932.06
2023-05-03T11:09:33.404Z,98931.88
2023-05-03T11:12:08.748Z,98930.66
2023-05-03T11:14:36.608Z,98931.53
2023-05-03T11:17:05.382Z,98934.31
2023-05-03T11:19:33.759Z,98939.59
2023-05-03T11:22:02.087Z,98937.41
2023-05-03T11:24:30.055Z,98932.47
2023-05-03T11:26:57.492Z,98937.47
2023-05-03T11:29:26.299Z,98931.50
2023-05-03T11:31:53.815Z,98932.06
2023-05-03T11:34:21.644Z,98921.91
2023-05-03T11:36:49.509Z,98931.81
2023-05-03T11:39:18.832Z,98929.00
2023-05-03T11:42:05.435Z,98931.81
2023-05-03T11:44:33.192Z,98928.66
2023-05-03T11:47:01.001Z,98928.19
2023-05-03T11:49:30.093Z,98929.44
2023-05-03T11:51:57.449Z,98924.56
2023-05-03T11:54:27.640Z,98926.41
2023-05-03T11:56:59.876Z,98922.38
2023-05-03T11:59:41.212Z,98921.97
2023-05-03T12:02:11.833Z,98919.00
2023-05-03T12:04:42.128Z,98922.41
2023-05-03T12:07:13.124Z,98916.25
2023-05-03T12:09:43.880Z,98921.44
2023-05-03T12:12:26.425Z,98912.28
2023-05-03T12:15:03.667Z,98917.31
2023-05-03T12:17:44.303Z,98917.03
2023-05-03T12:22:59.097Z,98913.16
2023-05-03T12:25:33.590Z,98916.16
2023-05-03T12:30:35.629Z,98914.63
2023-05-03T12:33:04.959Z,98909.47
2023-05-03T12:35:34.125Z,98909.19
2023-05-03T12:38:09.573Z,98904.16
2023-05-03T12:40:39.413Z,98911.66
2023-05-03T12:43:07.285Z,98911.72
2023-05-03T12:45:35.045Z,98907.13
2023-05-03T12:48:03.552Z,98902.31
2023-05-03T12:50:32.399Z,98909.97
2023-05-03T12:53:02.735Z,98899.50
2023-05-03T12:55:36.416Z,98905.94
2023-05-03T13:00:46.592Z,98904.47
2023-05-03T13:03:32.709Z,98901.03
2023-05-03T13:06:12.560Z,98902.28
2023-05-03T13:08:49.676Z,98891.66
2023-05-03T13:11:19.840Z,98890.81
2023-05-03T13:13:47.508Z,98897.53
2023-05-03T13:16:15.165Z,98897.81
2023-05-03T13:18:43.177Z,98890.00
2023-05-03T13:21:12.194Z,98888.03
2023-05-03T13:23:39.482Z,98886.22
2023-05-03T13:26:07.222Z,98889.03
2023-05-03T13:28:34.559Z,98886.56
2023-05-03T13:31:02.196Z,98883.13
2023-05-03T13:33:29.521Z,98883.88
2023-05-03T13:35:57.563Z,98878.84
2023-05-03T13:38:24.821Z,98882.66
2023-05-03T13:40:52.808Z,98889.88
2023-05-03T13:43:20.075Z,98888.47
2023-05-03T13:45:47.610Z,98880.28
2023-05-03T13:48:18.288Z,98872.66
2023-05-03T13:50:46.831Z,98870.88
2023-05-03T13:53:14.057Z,98870.06
2023-05-03T13:55:41.672Z,98871.81
2023-05-03T13:58:08.910Z,98870.00
2023-05-03T14:00:36.587Z,98869.25
2023-05-03T14:03:04.315Z,98865.28
2023-05-03T14:05:32.015Z,98864.09
2023-05-03T14:07:59.703Z,98861.53
2023-05-03T14:10:27.254Z,98861.72
2023-05-03T14:12:54.616Z,98863.50
2023-05-03T14:15:22.318Z,98855.13
2023-05-03T14:17:49.769Z,98856.53
2023-05-03T14:20:17.852Z,98858.06
2023-05-03T14:22:46.187Z,98866.00
2023-05-03T14:25:13.839Z,98860.75
2023-05-03T14:27:41.177Z,98859.72
2023-05-03T14:30:10.831Z,98860.22
2023-05-03T14:32:38.141Z,98855.00
2023-05-03T14:35:06.266Z,98859.53
2023-05-03T14:37:33.651Z,98855.75
2023-05-03T14:40:02.199Z,98860.53
2023-05-03T14:42:33.288Z,98861.28
2023-05-03T14:45:02.522Z,98866.84
2023-05-03T14:47:30.257Z,98864.34
2023-05-03T14:49:58.080Z,98858.47
2023-05-03T14:52:25.430Z,98871.69
2023-05-03T14:54:53.800Z,98863.00
2023-05-03T14:57:21.783Z,98871.28
2023-05-03T14:59:49.446Z,98870.56
2023-05-03T15:02:16.807Z,98873.41
2023-05-03T15:04:44.522Z,98862.31
2023-05-03T15:07:11.888Z,98871.94
2023-05-03T15:09:39.526Z,98867.84
2023-05-03T15:12:08.094Z,98869.81
2023-05-03T15:14:35.822Z,98865.53
2023-05-03T15:17:03.101Z,98873.91
2023-05-03T15:19:30.734Z,98875.75
2023-05-03T15:21:59.086Z,98867.53
2023-05-03T15:24:26.704Z,98866.75
2023-05-03T15:26:53.938Z,98860.19
2023-05-03T15:29:21.752Z,98872.16
2023-05-03T15:31:49.036Z,98869.81
2023-05-03T15:34:16.658Z,98871.34
2023-05-03T15:36:43.894Z,98873.28
2023-05-03T15:39:13.068Z,98873.53
2023-05-03T15:41:40.397Z,98872.44
2023-05-03T15:44:09.926Z,98865.47
2023-05-03T15:46:38.634Z,98866.59
2023-05-03T15:49:07.696Z,98870.75
2023-05-03T15:51:35.168Z,98865.28
2023-05-03T15:54:02.884Z,98869.91
2023-05-03T15:56:30.459Z,98871.09
2023-05-03T15:58:57.969Z,98860.53
2023-05-03T16:01:25.564Z,98858.13
2023-05-03T16:03:53.158Z,98862.41
2023-05-03T16:06:20.488Z,98864.66
2023-05-03T16:08:48.364Z,98864.69
2023-05-03T16:11:15.901Z,98860.84
2023-05-03T16:13:43.660Z,98864.88
2023-05-03T16:16:11.863Z,98858.31
2023-05-03T16:18:39.576Z,98866.22
2023-05-03T16:21:06.999Z,98860.94
2023-05-03T16:23:34.542Z,98863.75
2023-05-03T16:26:12.405Z,98863.53
2023-05-03T16:28:40.225Z,98865.78
2023-05-03T16:31:07.718Z,98869.59
2023-05-03T16:33:35.355Z,98861.22
2023-05-03T16:36:02.828Z,98870.81
2023-05-03T16:38:30.960Z,98867.44
2023-05-03T16:41:04.560Z,98862.84
2023-05-03T16:43:32.264Z,98868.00
2023-05-03T16:46:01.486Z,98854.28
2023-05-03T16:48:32.997Z,98857.34
2023-05-03T16:51:00.859Z,98860.22
2023-05-03T16:53:28.673Z,98859.41
2023-05-03T16:55:56.658Z,98866.06
2023-05-03T16:58:24.285Z,98864.44
2023-05-03T17:00:52.100Z,98864.19
2023-05-03T17:03:19.878Z,98866.03
2023-05-03T17:05:47.220Z,98871.03
2023-05-03T17:08:15.548Z,98866.41
2023-05-03T17:10:43.391Z,98866.97
2023-05-03T17:13:11.212Z,98869.88
2023-05-03T17:15:38.616Z,98869.25
2023-05-03T17:18:06.273Z,98872.16
2023-05-03T17:20:35.036Z,98874.47
2023-05-03T17:23:02.624Z,98871.84
2023-05-03T17:25:29.858Z,98877.03
2023-05-03T17:27:57.551Z,98880.94
2023-05-03T17:30:25.123Z,98874.34
2023-05-03T17:32:52.810Z,98888.16
2023-05-03T17:35:20.242Z,98885.66
2023-05-03T17:37:47.858Z,98884.91
2023-05-03T17:40:15.309Z,98886.38
2023-05-03T17:42:42.886Z,98888.38
2023-05-03T17:45:11.173Z,98889.59
2023-05-03T17:47:38.870Z,98886.59
2023-05-03T17:50:07.147Z,98883.97
2023-05-03T17:52:34.718Z,98890.66
2023-05-03T17:55:02.775Z,98888.97
2023-05-03T17:57:30.593Z,98891.38
2023-05-03T17:59:57.854Z,98902.28
2023-05-03T18:02:26.816Z,98897.50
2023-05-03T18:04:55.740Z,98902.41
2023-05-03T18:07:23.377Z,98899.66
2023-05-03T18:09:52.340Z,98897.41
2023-05-03T18:12:19.848Z,98897.16
2023-05-03T18:14:47.184Z,98900.50
2023-05-03T18:17:14.708Z,98904.09
2023-05-03T18:19:45.119Z,98896.66
2023-05-03T18:22:14.019Z,98897.88
2023-05-03T18:24:41.412Z,98906.84
2023-05-03T18:27:09.436Z,98906.22
2023-05-03T18:29:36.755Z,98904.66
2023-05-03T18:32:05.298Z,98904.75
2023-05-03T18:34:37.368Z,98909.25
2023-05-03T18:37:08.296Z,98909.00
2023-05-03T18:39:35.635Z,98910.97
2023-05-03T18:42:03.437Z,98909.38
2023-05-03T18:44:32.113Z,98907.28
2023-05-03T18:46:59.835Z,98905.88
2023-05-03T18:49:27.245Z,98912.28
2023-05-03T18:51:54.850Z,98904.13
2023-05-03T18:54:22.101Z,98909.81
2023-05-03T18:56:49.682Z,98905.41
2023-05-03T18:59:17.117Z,98916.78
2023-05-03T19:01:45.021Z,98911.63
2023-05-03T19:04:14.846Z,98921.31
2023-05-03T19:06:42.814Z,98921.88
2023-05-03T19:09:11.961Z,98911.69
2023-05-03T19:11:44.049Z,98911.16
2023-05-03T19:14:12.024Z,98915.34
2023-05-03T19:16:39.730Z,98914.50
2023-05-03T19:19:07.350Z,98914.75
2023-05-03T19:21:37.831Z,98916.63
2023-05-03T19:24:09.133Z,98908.44
2023-05-03T19:26:36.682Z,98918.72
2023-05-03T19:29:04.574Z,98901.63
2023-05-03T19:31:32.469Z,98906.41
2023-05-03T19:34:05.250Z,98908.22
2023-05-03T19:36:32.940Z,98907.69
2023-05-03T19:39:00.408Z,98915.78
2023-05-03T19:41:27.970Z,98906.97
2023-05-03T19:43:55.638Z,98913.34
2023-05-03T19:46:23.371Z,98918.59
2023-05-03T19:48:50.724Z,98917.84
2023-05-03T19:51:18.386Z,98921.44
2023-05-03T19:53:48.038Z,98921.44
2023-05-03T19:56:16.445Z,98918.25
2023-05-03T19:58:43.801Z,98919.31
2023-05-03T20:01:11.402Z,98923.94
2023-05-03T20:03:39.588Z,98914.34
2023-05-03T20:06:07.236Z,98913.94
2023-05-03T20:08:36.147Z,98902.06
2023-05-03T20:11:03.951Z,98905.00
2023-05-03T20:13:31.349Z,98906.78
2023-05-03T20:15:58.921Z,98905.25
2023-05-03T20:18:26.326Z,98903.25
2023-05-03T20:20:53.889Z,98908.03
2023-05-03T20:23:21.528Z,98908.97
2023-05-03T20:25:49.524Z,98912.44
2023-05-03T20:28:16.917Z,98903.84
2023-05-03T20:30:44.512Z,98911.06
2023-05-03T20:33:12.461Z,98912.28
2023-05-03T20:35:40.139Z,98913.44
2023-05-03T20:38:07.543Z,98909.69
2023-05-03T20:40:35.852Z,98907.44
2023-05-03T20:43:03.265Z,98916.34
2023-05-03T20:45:30.989Z,98912.88
2023-05-03T20:47:58.373Z,98907.84
2023-05-03T20:50:26.040Z,98906.34
2023-05-03T20:52:54.785Z,98902.25
2023-05-03T20:55:22.816Z,98902.44
2023-05-03T20:57:50.077Z,98902.63
2023-05-03T21:00:17.909Z,98907.13
2023-05-03T21:02:46.619Z,98903.97
2023-05-03T21:05:14.173Z,98908.56
2023-05-03T21:07:41.928Z,98909.59
2023-05-03T21:10:10.098Z,98915.94
2023-05-03T21:12:37.518Z,98918.88
2023-05-03T21:15:05.864Z,98915.88
2023-05-03T21:17:33.445Z,98908.22
2023-05-03T21:20:01.354Z,98907.00
2023-05-03T21:22:30.296Z,98904.41
2023-05-03T21:24:57.848Z,98902.16
2023-05-03T21:27:25.059Z,98901.47
2023-05-03T21:29:52.544Z,98895.03
2023-05-03T21:32:19.793Z,98901.97
2023-05-03T21:34:47.350Z,98905.13
2023-05-03T21:37:14.669Z,98906.25
2023-05-03T21:39:45.275Z,98898.50
2023-05-03T21:42:18.049Z,98895.50
2023-05-03T21:44:48.718Z,98897.06
2023-05-03T21:47:15.997Z,98903.03
2023-05-03T21:49:43.935Z,98893.41
2023-05-03T21:52:11.167Z,98898.75
2023-05-03T21:54:38.649Z,98901.16
2023-05-03T21:57:05.878Z,98900.31
2023-05-03T21:59:33.795Z,98905.56
2023-05-03T22:02:01.184Z,98903.03
2023-05-03T22:04:28.911Z,98898.66
2023-05-03T22:06:56.656Z,98897.06
2023-05-03T22:09:24.804Z,98899.00
2023-05-03T22:11:52.345Z,98897.41
2023-05-03T22:14:19.838Z,98901.06
2023-05-03T22:16:47.092Z,98900.47
2023-05-03T22:19:14.579Z,98894.88
2023-05-03T22:21:42.557Z,98904.00
2023-05-03T22:24:10.193Z,98908.66
2023-05-03T22:26:37.415Z,98898.47
2023-05-03T22:29:05.375Z,98899.00
2023-05-03T22:31:32.612Z,98891.34
2023-05-03T22:34:00.183Z,98904.94
2023-05-03T22:36:27.919Z,98908.66
2023-05-03T22:39:00.848Z,98904.19
2023-05-03T22:41:28.220Z,98896.13
2023-05-03T22:43:55.719Z,98892.81
2023-05-03T22:46:23.979Z,98892.41
2023-05-03T22:48:52.017Z,98889.72
2023-05-03T22:51:19.483Z,98888.97
2023-05-03T22:53:47.054Z,98886.44
2023-05-03T22:56:14.512Z,98894.28
2023-05-03T22:58:42.324Z,98887.47
2023-05-03T23:01:12.650Z,98886.53
2023-05-03T23:03:41.279Z,98885.59
2023-05-03T23:06:08.700Z,98889.56
2023-05-03T23:08:36.411Z,98885.09
2023-05-03T23:11:03.961Z,98880.19
2023-05-03T23:13:31.562Z,98877.75
2023-05-03T23:16:05.761Z,98882.81
2023-05-03T23:18:33.341Z,98875.50
2023-05-03T23:21:00.628Z,98881.41
2023-05-03T23:23:29.141Z,98875.69
2023-05-03T23:25:56.915Z,98875.16
2023-05-03T23:28:24.998Z,98880.56
2023-05-03T23:30:52.746Z,98876.88
2023-05-03T23:33:20.936Z,98886.47
2023-05-03T23:35:48.932Z,98879.22
2023-05-03T23:38:16.558Z,98872.16
2023-05-03T23:40:43.870Z,98870.13
2023-05-03T23:43:11.403Z,98873.66
2023-05-03T23:45:38.715Z,98871.06
2023-05-03T23:48:06.627Z,98875.16
2023-05-03T23:50:33.974Z,98875.16
2023-05-03T23:53:03.591Z,98871.72
2023-05-03T23:55:30.802Z,98866.66
2023-05-03T23:57:58.335Z,98865.09
